Eastsound, Washington
Current Conditions -  °F | °C
As of 10:15 PM on Saturday 20 Dec 2014 (Local Time) from KORS Reporting Station
Scattered Clouds Scattered Clouds  
Wind Chill: 55°   Ceiling: Unl
Heat Index: 55°   Visibility: 10mi
Dew Point: 50°   Wind: 15mph
Humidity: 82%   Direction: 200°SSW
Pressure: 29.35"   Gusts: 32mph
Location:  48.7°N, 122.91°W
Report Text: KORS 210615Z AUTO 20013G28KT 040V040 10SM SCT019 SCT034 13/10 A2935 RMK AO2
Loading
Personal Weather Stations






























Interactive Weather Map New forecast layout! Learn more

10-Day Weather Forecast

Advertisements
Track Severe Weather on mobile